Time;durP1;ratioP1;P1;durP2;ratioP2;P2;SDS_P1;SDS_P2;PMS_P1;PMS_P2;Temp;Humidity;BMP_temperature;BMP_pressure;BME280_temperature;BME280_humidity;BME280_pressure;Samples;Min_cycle;Max_cycle;Signal;HPM_P1;HPM_P2
2023/11/27 00:01:08;;;;;;;11.40;6.50;;;5.90;99.90;;;;;;5039660;28;20200;-66
2023/11/27 00:03:34;;;;;;;10.63;6.80;;;5.90;99.90;;;;;;5033594;28;20275;-69
2023/11/27 00:05:59;;;;;;;13.63;7.30;;;6.00;99.90;;;;;;5036620;28;20424;-66
2023/11/27 00:08:25;;;;;;;11.70;6.83;;;5.90;99.90;;;;;;5040551;28;20500;-66
2023/11/27 00:10:51;;;;;;;15.10;7.00;;;6.00;99.90;;;;;;5035040;28;20279;-66
2023/11/27 00:13:16;;;;;;;8.23;6.50;;;5.90;99.90;;;;;;5036607;28;20287;-66
2023/11/27 00:15:42;;;;;;;15.00;6.77;;;6.00;99.90;;;;;;5038589;28;20184;-66
2023/11/27 00:18:08;;;;;;;13.63;7.90;;;6.00;99.90;;;;;;5037976;28;20197;-66
2023/11/27 00:20:34;;;;;;;10.70;6.80;;;6.00;99.90;;;;;;5035839;28;20180;-66
2023/11/27 00:22:59;;;;;;;13.27;7.33;;;6.00;99.90;;;;;;5035597;28;20298;-66
2023/11/27 00:25:25;;;;;;;11.73;6.60;;;5.90;99.90;;;;;;5031650;28;20639;-66
2023/11/27 00:27:51;;;;;;;14.30;6.50;;;5.90;99.90;;;;;;5031653;28;20184;-67
2023/11/27 00:30:17;;;;;;;11.90;6.13;;;6.00;99.90;;;;;;5038701;28;20427;-67
2023/11/27 00:32:42;;;;;;;11.00;6.53;;;6.00;99.90;;;;;;5039615;28;20204;-68
2023/11/27 00:35:08;;;;;;;13.77;6.27;;;5.90;99.90;;;;;;5041129;28;20540;-67
2023/11/27 00:37:34;;;;;;;9.43;5.57;;;5.90;99.90;;;;;;5039501;28;20176;-67
2023/11/27 00:39:59;;;;;;;10.73;5.97;;;5.80;99.90;;;;;;5039092;28;20234;-66
2023/11/27 00:42:25;;;;;;;7.37;5.40;;;5.80;99.90;;;;;;5042036;28;20187;-66
2023/11/27 00:44:50;;;;;;;9.17;6.00;;;5.80;99.90;;;;;;5038295;28;20187;-67
2023/11/27 00:47:17;;;;;;;13.50;6.37;;;5.80;99.90;;;;;;5041947;28;20664;-66
2023/11/27 00:49:43;;;;;;;13.57;7.30;;;5.90;99.90;;;;;;5042740;28;20180;-68
2023/11/27 00:52:09;;;;;;;13.27;6.50;;;5.90;99.90;;;;;;5041024;28;20979;-68
2023/11/27 00:54:34;;;;;;;9.53;5.90;;;5.90;99.90;;;;;;5040931;28;20488;-67
2023/11/27 00:57:00;;;;;;;8.33;5.60;;;5.90;99.90;;;;;;5038929;28;20187;-67
2023/11/27 00:59:26;;;;;;;11.20;6.07;;;5.90;99.90;;;;;;5043123;28;20565;-67
2023/11/27 01:01:51;;;;;;;9.27;5.83;;;5.90;99.90;;;;;;5045078;28;20176;-67
2023/11/27 01:04:17;;;;;;;13.97;6.30;;;5.80;99.90;;;;;;5041378;28;20219;-66
2023/11/27 01:06:43;;;;;;;13.47;5.80;;;5.80;99.90;;;;;;5043499;28;20249;-67
2023/11/27 01:09:09;;;;;;;13.50;5.00;;;5.80;99.90;;;;;;5041932;28;20297;-67
2023/11/27 01:11:34;;;;;;;21.67;6.80;;;5.80;99.90;;;;;;5037922;28;20527;-67
2023/11/27 01:14:00;;;;;;;7.83;5.80;;;5.80;99.90;;;;;;5043002;28;20201;-67
2023/11/27 01:16:26;;;;;;;9.30;5.40;;;5.80;99.90;;;;;;5040878;28;20190;-67
2023/11/27 01:18:52;;;;;;;8.37;5.50;;;5.80;99.90;;;;;;5041710;28;20184;-68
2023/11/27 01:21:17;;;;;;;10.90;6.30;;;5.80;99.90;;;;;;5043089;28;21050;-67
2023/11/27 01:23:43;;;;;;;10.27;5.97;;;5.80;99.90;;;;;;5043255;28;20552;-67
2023/11/27 01:26:09;;;;;;;13.33;6.80;;;5.90;99.90;;;;;;5043678;28;20267;-67
2023/11/27 01:28:36;;;;;;;13.23;5.67;;;5.80;99.90;;;;;;5043657;28;20525;-67
2023/11/27 01:31:03;;;;;;;12.73;7.03;;;5.90;99.90;;;;;;5042563;28;20211;-67
2023/11/27 01:33:29;;;;;;;10.47;6.00;;;5.90;99.90;;;;;;5038886;28;20472;-67
2023/11/27 01:35:54;;;;;;;12.73;5.97;;;5.90;99.90;;;;;;5037596;28;20498;-67
2023/11/27 01:38:20;;;;;;;9.33;5.40;;;5.80;99.90;;;;;;5043545;28;20187;-67
2023/11/27 01:40:45;;;;;;;9.80;6.80;;;5.80;99.90;;;;;;5038970;28;20219;-67
2023/11/27 01:43:15;;;;;;;8.20;6.00;;;5.90;99.90;;;;;;5039558;28;20216;-67
2023/11/27 01:45:41;;;;;;;9.90;6.53;;;5.90;99.90;;;;;;5037533;28;20213;-67
2023/11/27 01:48:07;;;;;;;9.90;6.00;;;5.90;99.90;;;;;;5040989;28;20422;-67
2023/11/27 01:50:33;;;;;;;10.27;5.73;;;6.00;99.90;;;;;;5038223;28;20477;-67
2023/11/27 01:53:00;;;;;;;11.60;5.20;;;6.00;99.90;;;;;;5040519;28;20982;-67
2023/11/27 01:55:28;;;;;;;14.43;6.30;;;6.00;99.90;;;;;;5041131;28;20434;-67
2023/11/27 01:57:54;;;;;;;7.77;5.43;;;6.00;99.90;;;;;;5039631;28;20422;-67
2023/11/27 02:00:21;;;;;;;9.70;4.83;;;6.00;99.90;;;;;;5047169;28;20422;-67
2023/11/27 02:02:49;;;;;;;9.23;5.33;;;6.00;99.90;;;;;;5041549;28;20521;-67
2023/11/27 02:05:15;;;;;;;12.27;5.40;;;6.00;99.90;;;;;;5038741;28;20789;-67
2023/11/27 02:07:44;;;;;;;11.07;5.40;;;6.10;99.90;;;;;;5040366;28;20426;-67
2023/11/27 02:10:10;;;;;;;13.13;5.50;;;6.10;99.90;;;;;;5038391;28;20411;-67
2023/11/27 02:12:36;;;;;;;6.87;4.60;;;6.10;99.90;;;;;;5041736;28;20438;-67
2023/11/27 02:15:01;;;;;;;7.77;5.03;;;6.00;99.90;;;;;;5036336;28;20935;-67
2023/11/27 02:17:27;;;;;;;8.63;5.30;;;6.00;99.90;;;;;;5040288;28;20185;-67
2023/11/27 02:19:53;;;;;;;9.23;4.90;;;5.90;99.90;;;;;;5040880;28;20172;-67
2023/11/27 02:22:22;;;;;;;7.83;4.40;;;5.90;99.90;;;;;;5039163;28;20680;-67
2023/11/27 02:24:47;;;;;;;9.87;4.87;;;6.00;99.90;;;;;;5038984;28;20688;-67
2023/11/27 02:27:13;;;;;;;7.40;4.60;;;6.10;99.90;;;;;;5040835;28;20467;-67
2023/11/27 02:29:39;;;;;;;7.90;4.73;;;6.00;99.90;;;;;;5040376;28;20184;-67
2023/11/27 02:32:05;;;;;;;13.00;5.73;;;5.90;99.90;;;;;;5037475;28;20222;-67
2023/11/27 02:34:30;;;;;;;11.03;5.60;;;6.00;99.90;;;;;;5037952;28;20247;-67
2023/11/27 02:36:56;;;;;;;12.63;5.17;;;6.00;99.90;;;;;;5036644;28;20542;-67
2023/11/27 02:39:21;;;;;;;13.67;5.77;;;6.00;99.90;;;;;;5043810;28;20230;-67
2023/11/27 02:41:47;;;;;;;12.70;5.10;;;6.00;99.90;;;;;;5040615;28;20707;-67
2023/11/27 02:44:14;;;;;;;9.57;5.23;;;6.00;99.90;;;;;;5038573;28;20200;-67
2023/11/27 02:46:41;;;;;;;7.90;4.83;;;6.00;99.90;;;;;;5045615;28;20417;-67
2023/11/27 02:49:07;;;;;;;7.13;4.10;;;6.00;99.90;;;;;;5039825;28;20429;-67
2023/11/27 02:51:39;;;;;;;13.03;4.60;;;6.00;99.90;;;;;;5036527;28;20570;-67
2023/11/27 02:54:04;;;;;;;15.60;4.50;;;6.00;99.90;;;;;;5039196;28;20442;-67
2023/11/27 02:56:30;;;;;;;11.97;4.67;;;5.90;99.90;;;;;;5039907;28;20946;-67
2023/11/27 02:58:55;;;;;;;6.30;4.23;;;5.90;99.90;;;;;;5039721;28;20180;-67
2023/11/27 03:01:25;;;;;;;8.03;4.00;;;5.80;99.90;;;;;;5038061;28;20187;-67
2023/11/27 03:03:51;;;;;;;9.23;4.90;;;5.80;99.90;;;;;;5041389;28;20289;-67
2023/11/27 03:06:18;;;;;;;7.60;3.93;;;5.90;99.90;;;;;;5040931;28;20497;-67
2023/11/27 03:08:43;;;;;;;10.33;4.60;;;6.00;99.90;;;;;;5038626;28;20502;-67
2023/11/27 03:11:11;;;;;;;9.33;4.67;;;5.90;99.90;;;;;;5039238;28;20520;-67
2023/11/27 03:13:37;;;;;;;11.70;5.13;;;6.00;99.90;;;;;;5038270;28;20199;-67
2023/11/27 03:16:03;;;;;;;5.47;3.80;;;5.90;99.90;;;;;;5040830;28;20442;-67
2023/11/27 03:18:28;;;;;;;7.30;4.27;;;5.80;99.90;;;;;;5037066;28;20258;-67
2023/11/27 03:20:54;;;;;;;6.00;4.40;;;5.80;99.90;;;;;;5041233;28;20510;-67
2023/11/27 03:23:19;;;;;;;11.00;4.90;;;5.80;99.90;;;;;;5039427;28;20249;-67
2023/11/27 03:25:45;;;;;;;8.70;3.90;;;5.70;99.90;;;;;;5042043;28;20229;-67
2023/11/27 03:28:10;;;;;;;12.53;4.83;;;5.80;99.90;;;;;;5037223;28;20262;-67
2023/11/27 03:30:36;;;;;;;8.67;4.87;;;5.70;99.90;;;;;;5039502;28;20234;-67
2023/11/27 03:33:02;;;;;;;10.43;5.20;;;5.60;99.90;;;;;;5035048;28;20204;-67
2023/11/27 03:35:27;;;;;;;6.20;4.80;;;5.60;99.90;;;;;;5044119;28;20172;-67
2023/11/27 03:37:53;;;;;;;7.30;5.07;;;5.60;99.90;;;;;;5037133;28;20283;-67
2023/11/27 03:40:18;;;;;;;9.20;5.47;;;5.60;99.90;;;;;;5038887;28;20176;-67
2023/11/27 03:42:44;;;;;;;8.33;5.77;;;5.60;99.90;;;;;;5037097;28;20222;-67
2023/11/27 03:45:09;;;;;;;11.03;5.20;;;5.60;99.90;;;;;;5039380;28;20206;-67
2023/11/27 03:47:35;;;;;;;8.53;5.03;;;5.60;99.90;;;;;;5042773;28;20568;-67
2023/11/27 03:50:01;;;;;;;8.17;5.00;;;5.70;99.90;;;;;;5037786;28;20185;-67
2023/11/27 03:52:26;;;;;;;19.63;5.37;;;5.70;99.90;;;;;;5038128;28;20215;-67
2023/11/27 03:54:52;;;;;;;8.10;5.30;;;5.70;99.90;;;;;;5035969;28;20199;-67
2023/11/27 03:57:18;;;;;;;8.50;5.30;;;5.70;99.90;;;;;;5037135;28;20230;-68
2023/11/27 03:59:43;;;;;;;9.90;5.10;;;5.70;99.90;;;;;;5038486;28;20541;-67
2023/11/27 04:02:09;;;;;;;11.53;5.60;;;5.80;99.90;;;;;;5037896;28;20418;-67
2023/11/27 04:04:39;;;;;;;6.00;4.90;;;5.80;99.90;;;;;;5039683;28;20615;-67
2023/11/27 04:07:05;;;;;;;9.70;5.53;;;5.80;99.90;;;;;;5036648;28;20190;-67
2023/11/27 04:09:31;;;;;;;8.70;5.73;;;5.80;99.90;;;;;;5043534;28;20509;-67
2023/11/27 04:11:57;;;;;;;12.23;5.17;;;5.70;99.90;;;;;;5040259;28;20465;-68
2023/11/27 04:14:23;;;;;;;6.90;5.30;;;5.60;99.90;;;;;;5039489;28;20437;-67
2023/11/27 04:16:49;;;;;;;6.63;4.97;;;5.60;99.90;;;;;;5044457;28;20794;-67
2023/11/27 04:19:14;;;;;;;8.73;5.00;;;5.70;99.90;;;;;;5043795;28;20270;-67
2023/11/27 04:21:40;;;;;;;9.23;6.07;;;5.70;99.90;;;;;;5045973;28;20188;-67
2023/11/27 04:24:06;;;;;;;8.70;5.57;;;5.70;99.90;;;;;;5036514;28;20281;-67
2023/11/27 04:26:32;;;;;;;15.20;5.00;;;5.70;99.90;;;;;;5042205;28;20226;-67
2023/11/27 04:28:58;;;;;;;10.70;5.47;;;5.60;99.90;;;;;;5043653;28;20437;-67
2023/11/27 04:31:24;;;;;;;12.63;6.87;;;5.70;99.90;;;;;;5044318;28;20462;-67
2023/11/27 04:33:50;;;;;;;11.17;5.57;;;5.70;99.90;;;;;;5040850;28;21053;-67
2023/11/27 04:36:18;;;;;;;9.23;6.63;;;5.60;99.90;;;;;;5041676;28;20186;-67
2023/11/27 04:38:44;;;;;;;8.43;5.47;;;5.60;99.90;;;;;;5043479;28;20688;-67
2023/11/27 04:41:09;;;;;;;7.23;5.20;;;5.50;99.90;;;;;;5043576;28;20430;-67
2023/11/27 04:43:36;;;;;;;13.10;6.27;;;5.60;99.90;;;;;;5041507;28;20208;-67
2023/11/27 04:46:01;;;;;;;11.93;5.57;;;5.60;99.90;;;;;;5046948;28;20289;-66
2023/11/27 04:48:27;;;;;;;7.40;5.67;;;5.70;99.90;;;;;;5039494;28;20465;-66
2023/11/27 04:50:52;;;;;;;10.07;5.67;;;5.70;99.90;;;;;;5038749;28;20215;-67
2023/11/27 04:53:18;;;;;;;9.33;6.03;;;5.60;99.90;;;;;;5039781;28;20200;-66
2023/11/27 04:55:44;;;;;;;7.70;5.27;;;5.60;99.90;;;;;;5044947;28;20285;-67
2023/11/27 04:58:09;;;;;;;7.53;5.40;;;5.60;99.90;;;;;;5041506;28;20532;-66
2023/11/27 05:00:35;;;;;;;8.50;5.23;;;5.70;99.90;;;;;;5043013;28;20661;-67
2023/11/27 05:03:00;;;;;;;10.50;5.03;;;5.60;99.90;;;;;;5040075;28;20208;-66
2023/11/27 05:05:26;;;;;;;6.97;5.50;;;5.60;99.90;;;;;;5040451;28;20187;-67
2023/11/27 05:07:51;;;;;;;9.20;6.80;;;5.60;99.90;;;;;;5042403;28;20191;-68
2023/11/27 05:10:17;;;;;;;10.67;5.70;;;5.60;99.90;;;;;;5037277;28;20195;-67
2023/11/27 05:12:43;;;;;;;6.33;4.37;;;5.60;99.90;;;;;;5040772;28;20200;-66
2023/11/27 05:15:09;;;;;;;12.17;5.90;;;5.50;99.90;;;;;;5042677;28;20176;-67
2023/11/27 05:17:34;;;;;;;6.40;5.30;;;5.50;99.90;;;;;;5041609;28;20180;-67
2023/11/27 05:20:00;;;;;;;11.50;5.83;;;5.50;99.90;;;;;;5042830;28;20420;-67
2023/11/27 05:22:26;;;;;;;9.70;4.80;;;5.50;99.90;;;;;;5044123;28;20295;-68
2023/11/27 05:24:52;;;;;;;9.50;5.00;;;5.50;99.90;;;;;;5042493;28;20991;-67
2023/11/27 05:27:18;;;;;;;10.50;5.77;;;5.50;99.90;;;;;;5041170;28;20180;-67
2023/11/27 05:29:43;;;;;;;7.07;5.47;;;5.60;99.90;;;;;;5043426;28;20180;-67
2023/11/27 05:32:09;;;;;;;8.30;5.20;;;5.50;99.90;;;;;;5043432;28;20471;-67
2023/11/27 05:34:36;;;;;;;10.80;5.80;;;5.50;99.90;;;;;;5040151;28;20207;-67
2023/11/27 05:37:02;;;;;;;10.60;5.70;;;5.60;99.90;;;;;;5043574;28;20168;-67
2023/11/27 05:39:28;;;;;;;7.07;4.93;;;5.60;99.90;;;;;;5036677;28;20484;-67
2023/11/27 05:41:53;;;;;;;10.80;4.90;;;5.50;99.90;;;;;;5041771;28;20418;-67
2023/11/27 05:44:19;;;;;;;9.77;5.30;;;5.50;99.90;;;;;;5041023;28;20443;-67
2023/11/27 05:46:45;;;;;;;7.60;4.80;;;5.50;99.90;;;;;;5043111;28;20183;-67
2023/11/27 05:49:11;;;;;;;11.53;5.20;;;5.50;99.90;;;;;;5044125;28;20464;-67
2023/11/27 05:51:39;;;;;;;10.83;4.90;;;5.40;99.90;;;;;;5040508;28;20465;-67
2023/11/27 05:54:06;;;;;;;6.57;4.77;;;5.50;99.90;;;;;;5037000;28;20286;-67
2023/11/27 05:56:32;;;;;;;14.23;6.10;;;5.50;99.90;;;;;;5041112;28;20422;-67
2023/11/27 05:58:57;;;;;;;10.20;5.20;;;5.50;99.90;;;;;;5037976;28;20497;-67
2023/11/27 06:01:23;;;;;;;7.83;5.50;;;5.60;99.90;;;;;;5041649;28;20230;-67
2023/11/27 06:03:48;;;;;;;8.10;5.43;;;5.60;99.90;;;;;;5039504;28;20231;-67
2023/11/27 06:06:14;;;;;;;8.10;5.67;;;5.60;99.90;;;;;;5038979;28;20565;-67
2023/11/27 06:08:41;;;;;;;7.77;5.10;;;5.60;99.90;;;;;;5034894;28;22245;-67
2023/11/27 06:11:07;;;;;;;8.23;5.70;;;5.60;99.90;;;;;;5043843;28;20206;-67
2023/11/27 06:13:33;;;;;;;7.90;5.10;;;5.60;99.90;;;;;;5040228;28;20457;-68
2023/11/27 06:15:58;;;;;;;14.03;5.90;;;5.50;99.90;;;;;;5039557;28;20947;-67
2023/11/27 06:18:24;;;;;;;7.87;6.13;;;5.50;99.90;;;;;;5039678;28;20744;-67
2023/11/27 06:20:50;;;;;;;7.60;4.90;;;5.50;99.90;;;;;;5035611;28;20185;-67
2023/11/27 06:23:15;;;;;;;9.53;5.43;;;5.60;99.90;;;;;;5037187;28;20215;-67
2023/11/27 06:25:41;;;;;;;13.00;5.73;;;5.60;99.90;;;;;;5041072;28;20187;-68
2023/11/27 06:28:07;;;;;;;8.97;5.90;;;5.60;99.90;;;;;;5038921;28;20212;-68
2023/11/27 06:30:33;;;;;;;9.73;5.33;;;5.60;99.90;;;;;;5041235;28;20445;-68
2023/11/27 06:33:00;;;;;;;12.20;6.60;;;5.70;99.90;;;;;;5038038;28;20956;-68
2023/11/27 06:35:26;;;;;;;11.50;5.87;;;5.70;99.90;;;;;;5041740;28;20410;-68
2023/11/27 06:37:51;;;;;;;10.73;5.20;;;5.70;99.90;;;;;;5035637;28;20576;-68
2023/11/27 06:40:17;;;;;;;8.50;5.70;;;5.70;99.90;;;;;;5037388;28;20203;-68
2023/11/27 06:42:45;;;;;;;7.97;5.17;;;5.80;99.90;;;;;;5037153;28;20204;-68
2023/11/27 06:45:10;;;;;;;9.07;5.20;;;5.70;99.90;;;;;;5035028;28;20173;-68
2023/11/27 06:47:36;;;;;;;6.93;5.43;;;5.70;99.90;;;;;;5038010;28;20418;-68
2023/11/27 06:50:01;;;;;;;9.03;5.67;;;5.70;99.90;;;;;;5040855;28;20183;-67
2023/11/27 06:52:27;;;;;;;10.20;5.00;;;5.70;99.90;;;;;;5039211;28;20215;-68
2023/11/27 06:54:53;;;;;;;10.20;5.50;;;5.60;99.90;;;;;;5040790;28;20685;-67
2023/11/27 06:57:18;;;;;;;11.03;6.40;;;5.70;99.90;;;;;;5039305;28;20180;-68
2023/11/27 06:59:44;;;;;;;10.10;5.60;;;5.60;99.90;;;;;;5040220;28;20458;-68
2023/11/27 07:02:09;;;;;;;12.77;6.83;;;5.70;99.90;;;;;;5040752;28;20200;-67
2023/11/27 07:04:37;;;;;;;8.30;5.77;;;5.70;99.90;;;;;;5039057;28;20642;-68
2023/11/27 07:07:03;;;;;;;10.47;6.53;;;5.60;99.90;;;;;;5034395;28;20591;-67
2023/11/27 07:09:28;;;;;;;7.90;5.53;;;5.70;99.90;;;;;;5030800;28;20427;-66
2023/11/27 07:11:54;;;;;;;11.83;6.13;;;5.70;99.90;;;;;;5034684;28;20310;-67
2023/11/27 07:14:20;;;;;;;13.20;6.50;;;5.50;99.90;;;;;;5034776;28;20299;-67
2023/11/27 07:16:45;;;;;;;7.60;6.80;;;5.50;99.90;;;;;;5032659;28;20675;-67
2023/11/27 07:19:12;;;;;;;8.03;5.30;;;5.60;99.90;;;;;;5031959;28;20419;-66
2023/11/27 07:21:38;;;;;;;8.57;5.87;;;5.70;99.90;;;;;;5035532;28;20187;-67
2023/11/27 07:24:04;;;;;;;10.77;5.70;;;5.70;99.90;;;;;;5032234;28;20456;-66
2023/11/27 07:26:29;;;;;;;8.97;6.27;;;5.80;99.90;;;;;;5034968;28;20215;-66
2023/11/27 07:28:55;;;;;;;10.37;5.73;;;5.70;99.90;;;;;;5036884;28;20439;-66
2023/11/27 07:31:22;;;;;;;8.50;5.87;;;5.70;99.90;;;;;;5038453;28;20203;-67
2023/11/27 07:33:48;;;;;;;10.30;5.30;;;5.70;99.90;;;;;;5036978;28;20199;-67
2023/11/27 07:36:13;;;;;;;6.80;5.30;;;5.80;99.90;;;;;;5036395;28;20495;-66
2023/11/27 07:38:42;;;;;;;7.50;5.63;;;5.60;99.90;;;;;;5040714;28;20433;-67
2023/11/27 07:41:08;;;;;;;7.67;5.30;;;5.70;99.90;;;;;;5043272;28;20249;-67
2023/11/27 07:43:34;;;;;;;12.70;5.63;;;5.60;99.90;;;;;;5041769;28;20457;-66
2023/11/27 07:46:01;;;;;;;12.33;5.60;;;5.70;99.90;;;;;;5040842;28;20483;-67
2023/11/27 07:48:26;;;;;;;9.13;5.47;;;5.70;99.90;;;;;;5041531;28;20483;-66
2023/11/27 07:50:52;;;;;;;9.47;7.73;;;5.80;99.90;;;;;;5044586;28;20967;-67
2023/11/27 07:53:21;;;;;;;11.77;5.50;;;5.80;99.90;;;;;;5040242;28;20282;-67
2023/11/27 07:55:46;;;;;;;7.47;4.83;;;5.90;99.90;;;;;;5042131;28;20179;-69
2023/11/27 07:58:15;;;;;;;7.30;5.60;;;5.80;99.90;;;;;;5039230;28;20482;-71
2023/11/27 08:00:42;;;;;;;9.43;5.87;;;5.90;99.90;;;;;;5043974;28;20222;-69
2023/11/27 08:03:07;;;;;;;9.27;5.43;;;5.90;99.90;;;;;;5033845;28;20465;-69
2023/11/27 08:05:33;;;;;;;9.13;5.60;;;5.90;99.90;;;;;;5048108;28;20471;-69
2023/11/27 08:07:58;;;;;;;8.33;5.17;;;5.80;99.90;;;;;;5047010;28;20187;-70
2023/11/27 08:10:24;;;;;;;11.40;5.33;;;5.80;99.90;;;;;;5041246;28;20223;-70
2023/11/27 08:12:50;;;;;;;7.33;5.07;;;5.90;99.90;;;;;;5046624;28;20203;-69
2023/11/27 08:15:18;;;;;;;8.63;5.20;;;5.90;99.90;;;;;;5039040;28;20184;-69
2023/11/27 08:17:48;;;;;;;16.70;8.77;;;6.00;99.90;;;;;;5044745;28;20521;-69
2023/11/27 08:20:15;;;;;;;12.67;5.50;;;6.00;99.90;;;;;;5043151;28;20446;-69
2023/11/27 08:22:44;;;;;;;8.43;5.43;;;6.00;99.90;;;;;;5043594;28;20473;-69
2023/11/27 08:25:11;;;;;;;6.83;4.90;;;6.10;99.90;;;;;;5041523;28;20509;-67
2023/11/27 08:27:39;;;;;;;7.67;5.73;;;6.10;99.90;;;;;;5043094;28;20438;-67
2023/11/27 08:30:09;;;;;;;15.30;5.57;;;6.10;99.90;;;;;;5042884;28;20426;-68
2023/11/27 08:32:35;;;;;;;7.53;5.17;;;6.10;99.90;;;;;;5039639;28;20573;-68
2023/11/27 08:35:01;;;;;;;7.40;4.30;;;6.10;99.90;;;;;;5044461;28;20457;-68
2023/11/27 08:37:26;;;;;;;6.70;4.07;;;6.20;99.90;;;;;;5042181;28;20183;-68
2023/11/27 08:39:52;;;;;;;6.70;4.80;;;6.30;99.90;;;;;;5044046;28;20179;-69
2023/11/27 08:42:17;;;;;;;5.53;3.90;;;6.30;99.90;;;;;;5041120;28;20183;-68
2023/11/27 08:44:43;;;;;;;7.70;4.80;;;6.20;99.90;;;;;;5039082;28;20176;-68
2023/11/27 08:47:08;;;;;;;6.03;4.00;;;6.30;99.90;;;;;;5045184;28;20191;-68
2023/11/27 08:49:34;;;;;;;7.10;4.17;;;6.30;99.90;;;;;;5044422;28;21488;-71
2023/11/27 08:51:59;;;;;;;8.77;4.73;;;6.30;99.90;;;;;;5044547;28;20226;-69
2023/11/27 08:54:32;;;;;;;7.13;4.37;;;6.40;99.90;;;;;;5036287;28;20247;-69
2023/11/27 08:56:58;;;;;;;6.13;4.40;;;6.30;99.90;;;;;;5038282;28;20203;-69
2023/11/27 08:59:24;;;;;;;6.73;4.27;;;6.40;99.90;;;;;;5034506;28;20438;-68
2023/11/27 09:01:51;;;;;;;6.87;3.90;;;6.40;99.90;;;;;;5041486;28;20418;-68
2023/11/27 09:04:18;;;;;;;5.10;4.47;;;6.50;99.90;;;;;;5035982;28;21227;-68
2023/11/27 09:06:44;;;;;;;9.43;4.63;;;6.60;99.90;;;;;;5038695;28;20419;-68
2023/11/27 09:09:11;;;;;;;6.73;4.30;;;6.60;99.90;;;;;;5040377;28;20431;-68
2023/11/27 09:11:37;;;;;;;6.50;4.10;;;6.60;99.90;;;;;;5038089;28;20601;-68
2023/11/27 09:14:02;;;;;;;6.23;3.80;;;6.50;99.90;;;;;;5038524;28;20553;-68
2023/11/27 09:16:28;;;;;;;5.60;3.70;;;6.50;99.90;;;;;;5043480;28;20191;-69
2023/11/27 09:18:53;;;;;;;8.17;4.10;;;6.60;99.90;;;;;;5033980;28;20184;-69
2023/11/27 09:21:19;;;;;;;5.37;3.80;;;6.60;99.90;;;;;;5038122;28;20180;-69
2023/11/27 09:23:44;;;;;;;5.80;3.77;;;6.70;99.90;;;;;;5038606;28;20707;-69
2023/11/27 09:26:10;;;;;;;6.23;3.37;;;6.80;99.90;;;;;;5040458;28;20606;-68
2023/11/27 09:28:36;;;;;;;7.27;3.60;;;6.80;99.90;;;;;;5041761;28;20660;-69
2023/11/27 09:31:01;;;;;;;4.63;3.57;;;6.90;99.90;;;;;;5038545;28;20713;-69
2023/11/27 09:33:27;;;;;;;4.90;3.30;;;6.80;99.90;;;;;;5034399;28;20207;-69
2023/11/27 09:35:53;;;;;;;6.27;3.87;;;6.90;99.90;;;;;;5037698;28;20621;-69
2023/11/27 09:38:18;;;;;;;6.20;3.33;;;7.00;99.90;;;;;;5038172;28;20458;-69
2023/11/27 09:40:44;;;;;;;5.40;3.37;;;7.10;99.90;;;;;;5042828;28;20620;-69
2023/11/27 09:43:10;;;;;;;10.40;3.20;;;7.00;99.90;;;;;;5039705;28;20677;-68
2023/11/27 09:45:37;;;;;;;5.33;3.07;;;7.10;99.90;;;;;;5036704;28;20192;-68
2023/11/27 09:48:10;;;;;;;4.63;3.33;;;7.10;99.90;;;;;;5036038;28;20419;-68
2023/11/27 09:50:36;;;;;;;8.17;3.17;;;7.10;99.90;;;;;;5037944;28;20513;-68
2023/11/27 09:53:06;;;;;;;6.10;3.50;;;6.90;99.90;;;;;;5040165;28;20449;-68
2023/11/27 09:55:37;;;;;;;4.77;2.90;;;7.10;99.90;;;;;;5041454;28;20454;-68
2023/11/27 09:58:05;;;;;;;6.97;3.20;;;7.20;99.90;;;;;;5042325;28;20399;-68
2023/11/27 10:00:31;;;;;;;6.23;3.30;;;7.20;99.90;;;;;;5043010;28;20443;-68
2023/11/27 10:02:58;;;;;;;4.03;3.20;;;7.20;99.90;;;;;;5044807;28;20553;-69
2023/11/27 10:05:24;;;;;;;4.70;2.83;;;7.20;99.90;;;;;;5041199;28;20491;-69
2023/11/27 10:07:51;;;;;;;8.60;2.53;;;7.30;99.90;;;;;;5042508;28;20461;-69
2023/11/27 10:10:27;;;;;;;4.07;2.70;;;7.30;99.90;;;;;;5038384;28;20462;-70
2023/11/27 10:13:08;;;;;;;7.83;3.83;;;7.30;99.90;;;;;;5037063;28;20436;-69
2023/11/27 10:15:38;;;;;;;5.73;3.77;;;7.30;99.90;;;;;;5039891;28;20422;-69
2023/11/27 10:18:04;;;;;;;6.37;3.03;;;7.20;99.90;;;;;;5041106;28;20826;-69
2023/11/27 10:20:30;;;;;;;5.10;3.03;;;7.20;99.90;;;;;;5033486;28;20423;-69
2023/11/27 10:23:01;;;;;;;6.57;3.40;;;7.20;99.90;;;;;;5042377;28;20462;-68
2023/11/27 10:25:29;;;;;;;5.37;2.90;;;7.20;99.90;;;;;;5039535;28;20191;-70
2023/11/27 10:27:57;;;;;;;6.80;3.00;;;7.30;99.90;;;;;;5044864;28;20495;-70
2023/11/27 10:30:29;;;;;;;4.67;2.80;;;7.30;99.90;;;;;;5036439;28;20461;-69
2023/11/27 10:32:55;;;;;;;3.87;2.60;;;7.40;99.90;;;;;;5040064;28;20443;-71
2023/11/27 10:35:24;;;;;;;3.47;2.43;;;7.30;99.90;;;;;;5041091;28;20407;-69
2023/11/27 10:37:54;;;;;;;5.53;3.10;;;7.40;99.90;;;;;;5039802;28;21024;-70
2023/11/27 10:40:20;;;;;;;3.93;2.43;;;7.40;99.90;;;;;;5036440;28;20422;-70
2023/11/27 10:42:48;;;;;;;4.17;2.70;;;7.50;99.90;;;;;;5039026;28;20514;-69
2023/11/27 10:45:21;;;;;;;3.80;2.80;;;7.40;99.90;;;;;;5041873;28;20438;-72
2023/11/27 10:47:51;;;;;;;4.40;2.77;;;7.50;99.90;;;;;;5043651;28;20535;-69
2023/11/27 10:50:18;;;;;;;3.37;2.83;;;7.40;99.90;;;;;;5041112;28;20510;-70
2023/11/27 10:52:48;;;;;;;3.83;2.53;;;7.50;99.90;;;;;;5043317;28;20459;-70
2023/11/27 10:55:17;;;;;;;5.37;2.80;;;7.50;99.90;;;;;;5036757;28;20411;-70
2023/11/27 10:57:44;;;;;;;11.93;2.80;;;7.60;99.90;;;;;;5035932;28;20488;-68
2023/11/27 11:00:14;;;;;;;3.37;2.33;;;7.50;99.90;;;;;;5037397;28;20427;-68
2023/11/27 11:02:48;;;;;;;2.90;2.30;;;7.60;99.90;;;;;;5039193;28;20860;-68
2023/11/27 11:05:18;;;;;;;5.17;2.70;;;7.50;99.90;;;;;;5033039;28;20434;-69
2023/11/27 11:07:47;;;;;;;3.53;2.50;;;7.60;99.90;;;;;;5035037;28;20509;-69
2023/11/27 11:10:15;;;;;;;3.20;2.40;;;7.60;99.90;;;;;;5039794;28;20526;-68
2023/11/27 11:12:41;;;;;;;13.70;2.60;;;7.70;99.90;;;;;;5040491;28;20531;-69
2023/11/27 11:15:13;;;;;;;6.57;2.50;;;7.70;99.90;;;;;;5034645;28;20845;-69
2023/11/27 11:18:10;;;;;;;4.53;2.60;;;7.70;99.90;;;;;;5041063;28;20521;-69
2023/11/27 11:20:59;;;;;;;4.70;2.60;;;7.70;99.90;;;;;;5052167;28;20420;-69
2023/11/27 11:23:38;;;;;;;4.20;2.47;;;7.60;99.90;;;;;;5041278;28;20462;-69
2023/11/27 11:26:33;;;;;;;9.83;2.70;;;7.60;99.90;;;;;;5041405;28;20410;-69
2023/11/27 11:29:11;;;;;;;6.67;2.40;;;7.50;99.90;;;;;;5034769;28;20422;-69
2023/11/27 11:31:48;;;;;;;4.50;2.37;;;7.40;99.90;;;;;;5039034;28;20462;-69
2023/11/27 11:34:22;;;;;;;4.10;2.20;;;7.50;99.90;;;;;;5039064;28;20434;-68
2023/11/27 11:36:54;;;;;;;3.33;2.30;;;7.50;99.90;;;;;;5041714;28;20410;-69
2023/11/27 11:39:19;;;;;;;3.30;1.70;;;7.50;99.90;;;;;;5038392;28;20488;-69
2023/11/27 11:41:46;;;;;;;3.70;2.13;;;7.40;99.90;;;;;;5040434;28;20410;-69
2023/11/27 11:44:18;;;;;;;3.80;2.40;;;7.40;99.90;;;;;;5038117;28;20291;-69
2023/11/27 11:46:46;;;;;;;4.30;2.00;;;7.30;99.90;;;;;;5038117;28;20987;-70
2023/11/27 11:49:18;;;;;;;3.67;1.83;;;7.30;99.90;;;;;;5035156;28;20430;-67
2023/11/27 11:52:09;;;;;;;3.77;2.23;;;7.30;99.90;;;;;;5029423;28;20470;-70
2023/11/27 11:54:38;;;;;;;2.40;1.90;;;7.30;99.90;;;;;;5034344;28;21127;-69
2023/11/27 11:57:21;;;;;;;2.03;1.60;;;7.20;99.90;;;;;;5039396;28;20538;-69
2023/11/27 11:59:49;;;;;;;3.07;1.90;;;7.00;99.90;;;;;;5028593;28;20417;-69
2023/11/27 12:02:19;;;;;;;6.40;2.30;;;6.90;99.90;;;;;;5031122;28;20422;-69
2023/11/27 12:04:44;;;;;;;2.60;1.93;;;6.80;99.90;;;;;;5029529;28;20462;-69
2023/11/27 12:07:10;;;;;;;3.47;2.10;;;6.80;99.90;;;;;;5031478;28;20519;-69
2023/11/27 12:09:41;;;;;;;2.70;2.20;;;6.80;99.90;;;;;;5026425;28;20175;-70
2023/11/27 12:12:10;;;;;;;3.47;1.80;;;6.80;99.90;;;;;;5035226;28;20602;-69
2023/11/27 12:14:37;;;;;;;3.03;1.97;;;6.80;99.90;;;;;;5028244;28;20504;-69
2023/11/27 12:17:07;;;;;;;3.13;1.90;;;6.70;99.90;;;;;;5030714;28;20423;-69
2023/11/27 12:19:33;;;;;;;3.27;2.30;;;6.60;99.90;;;;;;5030024;28;20422;-70
2023/11/27 12:21:59;;;;;;;3.37;2.43;;;6.60;99.90;;;;;;5031667;28;20426;-69
2023/11/27 12:24:25;;;;;;;3.00;2.10;;;6.70;99.90;;;;;;5030434;28;20812;-68
2023/11/27 12:26:53;;;;;;;4.33;2.20;;;6.60;99.90;;;;;;5030171;28;20188;-68
2023/11/27 12:29:19;;;;;;;4.97;2.20;;;6.70;99.90;;;;;;5036600;28;20203;-68
2023/11/27 12:31:51;;;;;;;3.80;2.40;;;6.60;99.90;;;;;;5037978;28;20508;-68
2023/11/27 12:34:17;;;;;;;2.83;2.20;;;6.60;99.90;;;;;;5030804;28;20445;-69
2023/11/27 12:36:45;;;;;;;4.17;2.30;;;6.40;99.90;;;;;;5034222;28;20532;-69
2023/11/27 12:39:16;;;;;;;2.93;2.33;;;6.50;99.90;;;;;;5035986;28;20246;-68
2023/11/27 12:41:43;;;;;;;3.63;2.40;;;6.40;99.90;;;;;;5038273;28;20426;-69
2023/11/27 12:44:13;;;;;;;3.67;2.30;;;6.40;99.90;;;;;;5037632;28;20465;-68
2023/11/27 12:46:52;;;;;;;6.00;2.73;;;6.40;99.90;;;;;;5046477;28;20513;-70
2023/11/27 12:49:27;;;;;;;10.80;2.37;;;6.40;99.90;;;;;;5040696;28;20654;-71
2023/11/27 12:51:57;;;;;;;2.53;2.00;;;6.40;99.90;;;;;;5038290;28;21107;-69